sensor_id;sensor_type;location;lat;lon;timestamp;P1;durP1;ratioP1;P2;durP2;ratioP2
67514;SDS011;60646;55.802;37.032;2024-02-26T00:01:39;31.02;;;9.75;;
67514;SDS011;60646;55.802;37.032;2024-02-26T00:04:05;43.65;;;13.43;;
67514;SDS011;60646;55.802;37.032;2024-02-26T00:06:31;48.50;;;17.13;;
67514;SDS011;60646;55.802;37.032;2024-02-26T00:08:57;58.15;;;18.55;;
67514;SDS011;60646;55.802;37.032;2024-02-26T00:11:23;15.75;;;5.93;;
67514;SDS011;60646;55.802;37.032;2024-02-26T00:13:49;32.55;;;10.15;;
67514;SDS011;60646;55.802;37.032;2024-02-26T00:16:15;68.18;;;21.27;;
67514;SDS011;60646;55.802;37.032;2024-02-26T00:18:41;31.50;;;9.90;;
67514;SDS011;60646;55.802;37.032;2024-02-26T00:21:07;29.92;;;8.73;;
67514;SDS011;60646;55.802;37.032;2024-02-26T00:23:32;14.55;;;4.93;;
67514;SDS011;60646;55.802;37.032;2024-02-26T00:25:58;17.38;;;5.25;;
67514;SDS011;60646;55.802;37.032;2024-02-26T00:28:24;13.82;;;4.03;;
67514;SDS011;60646;55.802;37.032;2024-02-26T00:30:50;17.40;;;5.68;;
67514;SDS011;60646;55.802;37.032;2024-02-26T00:33:21;21.50;;;6.75;;
67514;SDS011;60646;55.802;37.032;2024-02-26T00:35:48;19.85;;;7.80;;
67514;SDS011;60646;55.802;37.032;2024-02-26T00:38:14;43.15;;;15.93;;
67514;SDS011;60646;55.802;37.032;2024-02-26T00:40:40;30.80;;;8.48;;
67514;SDS011;60646;55.802;37.032;2024-02-26T00:43:06;27.38;;;9.52;;
67514;SDS011;60646;55.802;37.032;2024-02-26T00:45:32;17.17;;;6.30;;
67514;SDS011;60646;55.802;37.032;2024-02-26T00:47:59;21.33;;;6.47;;
67514;SDS011;60646;55.802;37.032;2024-02-26T00:50:30;11.27;;;4.28;;
67514;SDS011;60646;55.802;37.032;2024-02-26T00:52:59;10.63;;;4.25;;
67514;SDS011;60646;55.802;37.032;2024-02-26T00:55:25;18.63;;;8.43;;
67514;SDS011;60646;55.802;37.032;2024-02-26T00:57:51;10.40;;;4.50;;
67514;SDS011;60646;55.802;37.032;2024-02-26T01:00:17;5.38;;;2.67;;
67514;SDS011;60646;55.802;37.032;2024-02-26T01:02:43;7.22;;;4.13;;
67514;SDS011;60646;55.802;37.032;2024-02-26T01:05:12;5.82;;;2.33;;
67514;SDS011;60646;55.802;37.032;2024-02-26T01:07:39;5.00;;;2.72;;
67514;SDS011;60646;55.802;37.032;2024-02-26T01:10:05;9.65;;;4.00;;
67514;SDS011;60646;55.802;37.032;2024-02-26T01:12:32;25.98;;;7.03;;
67514;SDS011;60646;55.802;37.032;2024-02-26T01:15:00;47.80;;;13.55;;
67514;SDS011;60646;55.802;37.032;2024-02-26T01:17:26;44.53;;;12.98;;
67514;SDS011;60646;55.802;37.032;2024-02-26T01:19:52;54.78;;;16.60;;
67514;SDS011;60646;55.802;37.032;2024-02-26T01:22:19;28.50;;;7.82;;
67514;SDS011;60646;55.802;37.032;2024-02-26T01:24:46;35.33;;;10.68;;
67514;SDS011;60646;55.802;37.032;2024-02-26T01:27:11;19.58;;;6.75;;
67514;SDS011;60646;55.802;37.032;2024-02-26T01:29:39;48.28;;;15.32;;
67514;SDS011;60646;55.802;37.032;2024-02-26T01:32:05;25.67;;;8.85;;
67514;SDS011;60646;55.802;37.032;2024-02-26T01:34:31;20.20;;;7.45;;
67514;SDS011;60646;55.802;37.032;2024-02-26T01:36:57;40.97;;;12.88;;
67514;SDS011;60646;55.802;37.032;2024-02-26T01:39:23;28.10;;;8.52;;
67514;SDS011;60646;55.802;37.032;2024-02-26T01:41:49;13.63;;;5.22;;
67514;SDS011;60646;55.802;37.032;2024-02-26T01:44:15;30.65;;;10.25;;
67514;SDS011;60646;55.802;37.032;2024-02-26T01:46:41;16.25;;;6.43;;
67514;SDS011;60646;55.802;37.032;2024-02-26T01:49:08;12.68;;;4.85;;
67514;SDS011;60646;55.802;37.032;2024-02-26T01:51:38;23.98;;;6.90;;
67514;SDS011;60646;55.802;37.032;2024-02-26T01:54:05;22.25;;;9.20;;
67514;SDS011;60646;55.802;37.032;2024-02-26T01:56:33;27.30;;;8.27;;
67514;SDS011;60646;55.802;37.032;2024-02-26T01:59:01;12.27;;;4.70;;
67514;SDS011;60646;55.802;37.032;2024-02-26T02:01:27;16.73;;;4.97;;
67514;SDS011;60646;55.802;37.032;2024-02-26T02:03:59;13.07;;;4.43;;
67514;SDS011;60646;55.802;37.032;2024-02-26T02:06:26;9.23;;;3.90;;
67514;SDS011;60646;55.802;37.032;2024-02-26T02:08:56;11.80;;;3.42;;
67514;SDS011;60646;55.802;37.032;2024-02-26T02:11:22;8.82;;;3.80;;
67514;SDS011;60646;55.802;37.032;2024-02-26T02:13:49;6.85;;;2.60;;
67514;SDS011;60646;55.802;37.032;2024-02-26T02:16:15;6.38;;;2.53;;
67514;SDS011;60646;55.802;37.032;2024-02-26T02:18:41;4.78;;;1.95;;
67514;SDS011;60646;55.802;37.032;2024-02-26T02:21:07;8.60;;;3.15;;
67514;SDS011;60646;55.802;37.032;2024-02-26T02:23:33;4.28;;;1.90;;
67514;SDS011;60646;55.802;37.032;2024-02-26T02:25:59;4.43;;;2.45;;
67514;SDS011;60646;55.802;37.032;2024-02-26T02:28:25;4.97;;;1.90;;
67514;SDS011;60646;55.802;37.032;2024-02-26T02:30:53;7.35;;;3.40;;
67514;SDS011;60646;55.802;37.032;2024-02-26T02:33:19;6.53;;;2.22;;
67514;SDS011;60646;55.802;37.032;2024-02-26T02:35:46;14.00;;;4.07;;
67514;SDS011;60646;55.802;37.032;2024-02-26T02:38:11;9.18;;;3.50;;
67514;SDS011;60646;55.802;37.032;2024-02-26T02:40:37;4.07;;;1.90;;
67514;SDS011;60646;55.802;37.032;2024-02-26T02:43:03;5.22;;;2.40;;
67514;SDS011;60646;55.802;37.032;2024-02-26T02:45:30;10.82;;;4.20;;
67514;SDS011;60646;55.802;37.032;2024-02-26T02:47:56;7.60;;;2.97;;
67514;SDS011;60646;55.802;37.032;2024-02-26T02:50:22;5.13;;;2.67;;
67514;SDS011;60646;55.802;37.032;2024-02-26T02:52:47;5.75;;;2.38;;
67514;SDS011;60646;55.802;37.032;2024-02-26T02:55:13;8.93;;;2.30;;
67514;SDS011;60646;55.802;37.032;2024-02-26T02:57:39;15.23;;;5.75;;
67514;SDS011;60646;55.802;37.032;2024-02-26T03:00:07;10.85;;;4.80;;
67514;SDS011;60646;55.802;37.032;2024-02-26T03:02:37;6.25;;;2.47;;
67514;SDS011;60646;55.802;37.032;2024-02-26T03:05:03;8.77;;;1.88;;
67514;SDS011;60646;55.802;37.032;2024-02-26T03:07:29;5.75;;;2.05;;
67514;SDS011;60646;55.802;37.032;2024-02-26T03:09:55;11.80;;;3.83;;
67514;SDS011;60646;55.802;37.032;2024-02-26T03:12:22;7.38;;;2.45;;
67514;SDS011;60646;55.802;37.032;2024-02-26T03:14:48;5.45;;;1.70;;
67514;SDS011;60646;55.802;37.032;2024-02-26T03:17:14;4.80;;;2.20;;
67514;SDS011;60646;55.802;37.032;2024-02-26T03:19:40;6.53;;;2.67;;
67514;SDS011;60646;55.802;37.032;2024-02-26T03:22:05;3.35;;;1.65;;
67514;SDS011;60646;55.802;37.032;2024-02-26T03:24:32;5.30;;;1.67;;
67514;SDS011;60646;55.802;37.032;2024-02-26T03:26:58;4.13;;;1.80;;
67514;SDS011;60646;55.802;37.032;2024-02-26T03:29:24;6.78;;;2.53;;
67514;SDS011;60646;55.802;37.032;2024-02-26T03:31:50;5.00;;;2.03;;
67514;SDS011;60646;55.802;37.032;2024-02-26T03:34:15;5.78;;;2.35;;
67514;SDS011;60646;55.802;37.032;2024-02-26T03:36:43;3.67;;;1.98;;
67514;SDS011;60646;55.802;37.032;2024-02-26T03:39:09;4.50;;;1.60;;
67514;SDS011;60646;55.802;37.032;2024-02-26T03:41:35;7.05;;;2.47;;
67514;SDS011;60646;55.802;37.032;2024-02-26T03:44:02;7.65;;;2.38;;
67514;SDS011;60646;55.802;37.032;2024-02-26T03:46:28;8.48;;;3.72;;
67514;SDS011;60646;55.802;37.032;2024-02-26T03:48:54;5.05;;;2.20;;
67514;SDS011;60646;55.802;37.032;2024-02-26T03:51:20;7.25;;;2.70;;
67514;SDS011;60646;55.802;37.032;2024-02-26T03:53:45;6.63;;;2.60;;
67514;SDS011;60646;55.802;37.032;2024-02-26T03:56:12;2.78;;;1.52;;
67514;SDS011;60646;55.802;37.032;2024-02-26T03:58:40;5.90;;;2.53;;
67514;SDS011;60646;55.802;37.032;2024-02-26T04:01:08;8.95;;;2.67;;
67514;SDS011;60646;55.802;37.032;2024-02-26T04:03:34;9.60;;;2.65;;
67514;SDS011;60646;55.802;37.032;2024-02-26T04:06:01;9.40;;;3.15;;
67514;SDS011;60646;55.802;37.032;2024-02-26T04:08:28;10.32;;;3.60;;
67514;SDS011;60646;55.802;37.032;2024-02-26T04:10:55;9.73;;;2.70;;
67514;SDS011;60646;55.802;37.032;2024-02-26T04:13:21;27.15;;;7.57;;
67514;SDS011;60646;55.802;37.032;2024-02-26T04:15:47;26.90;;;8.50;;
67514;SDS011;60646;55.802;37.032;2024-02-26T04:18:13;28.63;;;9.00;;
67514;SDS011;60646;55.802;37.032;2024-02-26T04:23:55;20.65;;;8.43;;
67514;SDS011;60646;55.802;37.032;2024-02-26T04:26:21;16.45;;;7.18;;
67514;SDS011;60646;55.802;37.032;2024-02-26T04:28:47;6.30;;;3.15;;
67514;SDS011;60646;55.802;37.032;2024-02-26T04:31:13;9.88;;;5.68;;
67514;SDS011;60646;55.802;37.032;2024-02-26T04:33:38;11.18;;;5.68;;
67514;SDS011;60646;55.802;37.032;2024-02-26T04:36:04;10.02;;;4.20;;
67514;SDS011;60646;55.802;37.032;2024-02-26T04:38:30;5.20;;;2.25;;
67514;SDS011;60646;55.802;37.032;2024-02-26T04:40:56;10.27;;;5.20;;
67514;SDS011;60646;55.802;37.032;2024-02-26T04:43:22;15.77;;;6.75;;
67514;SDS011;60646;55.802;37.032;2024-02-26T04:45:48;9.75;;;4.57;;
67514;SDS011;60646;55.802;37.032;2024-02-26T04:48:14;7.43;;;4.40;;
67514;SDS011;60646;55.802;37.032;2024-02-26T04:50:39;9.15;;;3.53;;
67514;SDS011;60646;55.802;37.032;2024-02-26T04:53:07;4.90;;;2.42;;
67514;SDS011;60646;55.802;37.032;2024-02-26T04:55:33;4.63;;;2.60;;
67514;SDS011;60646;55.802;37.032;2024-02-26T04:57:59;7.30;;;3.15;;
67514;SDS011;60646;55.802;37.032;2024-02-26T05:00:25;7.38;;;4.60;;
67514;SDS011;60646;55.802;37.032;2024-02-26T05:06:33;3.20;;;2.20;;
67514;SDS011;60646;55.802;37.032;2024-02-26T05:08:59;4.32;;;2.30;;
67514;SDS011;60646;55.802;37.032;2024-02-26T05:11:25;5.38;;;2.67;;
67514;SDS011;60646;55.802;37.032;2024-02-26T05:13:51;5.03;;;2.60;;
67514;SDS011;60646;55.802;37.032;2024-02-26T05:16:16;5.72;;;3.03;;
67514;SDS011;60646;55.802;37.032;2024-02-26T05:18:42;3.85;;;2.25;;
67514;SDS011;60646;55.802;37.032;2024-02-26T05:21:08;5.32;;;2.35;;
67514;SDS011;60646;55.802;37.032;2024-02-26T05:23:34;10.02;;;4.72;;
67514;SDS011;60646;55.802;37.032;2024-02-26T05:26:00;5.68;;;2.20;;
67514;SDS011;60646;55.802;37.032;2024-02-26T05:28:25;3.53;;;1.80;;
67514;SDS011;60646;55.802;37.032;2024-02-26T05:30:51;3.22;;;1.85;;
67514;SDS011;60646;55.802;37.032;2024-02-26T05:33:17;3.25;;;2.25;;
67514;SDS011;60646;55.802;37.032;2024-02-26T05:35:43;4.38;;;2.10;;
67514;SDS011;60646;55.802;37.032;2024-02-26T05:38:09;3.25;;;1.45;;
67514;SDS011;60646;55.802;37.032;2024-02-26T05:40:34;2.80;;;1.52;;
67514;SDS011;60646;55.802;37.032;2024-02-26T05:43:00;4.20;;;2.45;;
67514;SDS011;60646;55.802;37.032;2024-02-26T05:45:26;3.65;;;2.10;;
67514;SDS011;60646;55.802;37.032;2024-02-26T05:47:52;3.03;;;1.58;;
67514;SDS011;60646;55.802;37.032;2024-02-26T05:50:18;12.20;;;3.50;;
67514;SDS011;60646;55.802;37.032;2024-02-26T05:52:44;12.23;;;3.40;;
67514;SDS011;60646;55.802;37.032;2024-02-26T05:55:16;6.03;;;2.42;;
67514;SDS011;60646;55.802;37.032;2024-02-26T05:57:43;11.00;;;3.63;;
67514;SDS011;60646;55.802;37.032;2024-02-26T06:00:09;7.05;;;2.28;;
67514;SDS011;60646;55.802;37.032;2024-02-26T06:02:38;5.25;;;1.90;;
67514;SDS011;60646;55.802;37.032;2024-02-26T06:05:04;9.40;;;3.83;;
67514;SDS011;60646;55.802;37.032;2024-02-26T06:07:33;13.23;;;5.50;;
67514;SDS011;60646;55.802;37.032;2024-02-26T06:09:59;6.93;;;2.47;;
67514;SDS011;60646;55.802;37.032;2024-02-26T06:12:29;31.42;;;11.25;;
67514;SDS011;60646;55.802;37.032;2024-02-26T06:15:07;18.63;;;5.65;;
67514;SDS011;60646;55.802;37.032;2024-02-26T06:17:34;8.55;;;3.05;;
67514;SDS011;60646;55.802;37.032;2024-02-26T06:20:00;16.08;;;5.88;;
67514;SDS011;60646;55.802;37.032;2024-02-26T06:22:27;30.20;;;10.60;;
67514;SDS011;60646;55.802;37.032;2024-02-26T06:24:52;7.82;;;3.78;;
67514;SDS011;60646;55.802;37.032;2024-02-26T06:27:18;6.35;;;2.58;;
67514;SDS011;60646;55.802;37.032;2024-02-26T06:29:44;6.38;;;2.60;;
67514;SDS011;60646;55.802;37.032;2024-02-26T06:32:11;3.55;;;1.60;;
67514;SDS011;60646;55.802;37.032;2024-02-26T06:34:36;5.88;;;1.90;;
67514;SDS011;60646;55.802;37.032;2024-02-26T06:37:04;7.95;;;2.92;;
67514;SDS011;60646;55.802;37.032;2024-02-26T06:39:31;6.80;;;3.20;;
67514;SDS011;60646;55.802;37.032;2024-02-26T06:41:57;5.35;;;2.53;;
67514;SDS011;60646;55.802;37.032;2024-02-26T06:44:59;8.25;;;3.10;;
67514;SDS011;60646;55.802;37.032;2024-02-26T06:47:25;6.05;;;3.03;;
67514;SDS011;60646;55.802;37.032;2024-02-26T06:49:51;4.30;;;2.17;;
67514;SDS011;60646;55.802;37.032;2024-02-26T06:52:17;3.35;;;2.00;;
67514;SDS011;60646;55.802;37.032;2024-02-26T06:54:43;5.82;;;2.58;;
67514;SDS011;60646;55.802;37.032;2024-02-26T06:57:10;6.20;;;2.40;;
67514;SDS011;60646;55.802;37.032;2024-02-26T06:59:36;4.22;;;1.77;;
67514;SDS011;60646;55.802;37.032;2024-02-26T07:02:01;9.80;;;3.22;;
67514;SDS011;60646;55.802;37.032;2024-02-26T07:04:27;12.75;;;4.93;;
67514;SDS011;60646;55.802;37.032;2024-02-26T07:06:53;8.73;;;4.60;;
67514;SDS011;60646;55.802;37.032;2024-02-26T07:09:19;6.65;;;2.88;;
67514;SDS011;60646;55.802;37.032;2024-02-26T07:11:45;7.22;;;3.67;;
67514;SDS011;60646;55.802;37.032;2024-02-26T07:14:11;3.75;;;2.08;;
67514;SDS011;60646;55.802;37.032;2024-02-26T07:16:38;5.97;;;2.20;;
67514;SDS011;60646;55.802;37.032;2024-02-26T07:19:04;6.53;;;2.92;;
67514;SDS011;60646;55.802;37.032;2024-02-26T07:21:30;6.15;;;2.70;;
67514;SDS011;60646;55.802;37.032;2024-02-26T07:23:56;7.15;;;3.50;;
67514;SDS011;60646;55.802;37.032;2024-02-26T07:26:22;3.90;;;2.40;;
67514;SDS011;60646;55.802;37.032;2024-02-26T07:28:49;4.35;;;1.88;;
67514;SDS011;60646;55.802;37.032;2024-02-26T07:31:17;2.83;;;1.60;;
67514;SDS011;60646;55.802;37.032;2024-02-26T07:33:43;6.18;;;3.33;;
67514;SDS011;60646;55.802;37.032;2024-02-26T07:36:08;13.45;;;5.97;;
67514;SDS011;60646;55.802;37.032;2024-02-26T07:38:34;4.30;;;2.60;;
67514;SDS011;60646;55.802;37.032;2024-02-26T07:41:01;4.03;;;2.05;;
67514;SDS011;60646;55.802;37.032;2024-02-26T07:43:28;4.80;;;2.30;;
67514;SDS011;60646;55.802;37.032;2024-02-26T07:45:54;4.18;;;2.28;;
67514;SDS011;60646;55.802;37.032;2024-02-26T07:48:20;3.80;;;2.15;;
67514;SDS011;60646;55.802;37.032;2024-02-26T07:50:46;4.85;;;1.83;;
67514;SDS011;60646;55.802;37.032;2024-02-26T07:53:13;9.18;;;3.00;;
67514;SDS011;60646;55.802;37.032;2024-02-26T07:55:39;11.32;;;4.30;;
67514;SDS011;60646;55.802;37.032;2024-02-26T07:58:04;14.07;;;6.03;;
67514;SDS011;60646;55.802;37.032;2024-02-26T08:00:30;5.88;;;2.38;;
67514;SDS011;60646;55.802;37.032;2024-02-26T08:02:56;4.15;;;2.28;;
67514;SDS011;60646;55.802;37.032;2024-02-26T08:05:22;6.65;;;3.65;;
67514;SDS011;60646;55.802;37.032;2024-02-26T08:07:48;6.95;;;2.60;;
67514;SDS011;60646;55.802;37.032;2024-02-26T08:10:14;9.05;;;3.08;;
67514;SDS011;60646;55.802;37.032;2024-02-26T08:12:40;5.68;;;2.50;;
67514;SDS011;60646;55.802;37.032;2024-02-26T08:15:24;12.55;;;4.60;;
67514;SDS011;60646;55.802;37.032;2024-02-26T08:17:50;8.13;;;2.97;;
67514;SDS011;60646;55.802;37.032;2024-02-26T08:20:16;7.18;;;2.88;;
67514;SDS011;60646;55.802;37.032;2024-02-26T08:22:42;14.77;;;5.32;;
67514;SDS011;60646;55.802;37.032;2024-02-26T08:25:08;7.40;;;2.90;;
67514;SDS011;60646;55.802;37.032;2024-02-26T08:27:35;9.52;;;3.78;;
67514;SDS011;60646;55.802;37.032;2024-02-26T08:30:01;12.93;;;4.65;;
67514;SDS011;60646;55.802;37.032;2024-02-26T08:32:29;14.65;;;5.95;;
67514;SDS011;60646;55.802;37.032;2024-02-26T08:34:55;12.65;;;5.65;;
67514;SDS011;60646;55.802;37.032;2024-02-26T08:37:21;9.95;;;4.72;;
67514;SDS011;60646;55.802;37.032;2024-02-26T08:39:47;22.85;;;6.95;;
67514;SDS011;60646;55.802;37.032;2024-02-26T08:42:13;8.55;;;2.70;;
67514;SDS011;60646;55.802;37.032;2024-02-26T08:44:38;12.70;;;4.53;;
67514;SDS011;60646;55.802;37.032;2024-02-26T08:47:04;19.88;;;6.70;;
67514;SDS011;60646;55.802;37.032;2024-02-26T08:49:30;10.88;;;3.90;;
67514;SDS011;60646;55.802;37.032;2024-02-26T08:51:56;12.25;;;5.15;;
67514;SDS011;60646;55.802;37.032;2024-02-26T08:54:22;7.78;;;3.38;;
67514;SDS011;60646;55.802;37.032;2024-02-26T08:56:49;8.88;;;3.30;;
67514;SDS011;60646;55.802;37.032;2024-02-26T08:59:15;8.57;;;2.65;;
67514;SDS011;60646;55.802;37.032;2024-02-26T09:01:41;9.05;;;3.40;;
67514;SDS011;60646;55.802;37.032;2024-02-26T09:04:08;7.00;;;2.70;;
67514;SDS011;60646;55.802;37.032;2024-02-26T09:06:33;6.57;;;2.65;;
67514;SDS011;60646;55.802;37.032;2024-02-26T09:08:59;8.40;;;3.45;;
67514;SDS011;60646;55.802;37.032;2024-02-26T09:11:25;10.23;;;3.22;;
67514;SDS011;60646;55.802;37.032;2024-02-26T09:13:51;7.32;;;3.13;;
67514;SDS011;60646;55.802;37.032;2024-02-26T09:16:17;6.93;;;2.55;;
67514;SDS011;60646;55.802;37.032;2024-02-26T09:18:42;3.58;;;1.95;;
67514;SDS011;60646;55.802;37.032;2024-02-26T09:21:08;6.57;;;2.67;;
67514;SDS011;60646;55.802;37.032;2024-02-26T09:23:34;5.80;;;2.15;;
67514;SDS011;60646;55.802;37.032;2024-02-26T09:26:18;11.68;;;4.25;;
67514;SDS011;60646;55.802;37.032;2024-02-26T09:28:44;12.10;;;3.25;;
67514;SDS011;60646;55.802;37.032;2024-02-26T09:31:10;9.63;;;2.88;;
67514;SDS011;60646;55.802;37.032;2024-02-26T09:33:36;5.47;;;2.38;;
67514;SDS011;60646;55.802;37.032;2024-02-26T09:36:03;7.18;;;2.42;;
67514;SDS011;60646;55.802;37.032;2024-02-26T09:38:48;12.77;;;3.90;;
67514;SDS011;60646;55.802;37.032;2024-02-26T09:41:14;7.55;;;3.13;;
67514;SDS011;60646;55.802;37.032;2024-02-26T09:44:02;13.30;;;4.65;;
67514;SDS011;60646;55.802;37.032;2024-02-26T09:46:30;6.28;;;2.40;;
67514;SDS011;60646;55.802;37.032;2024-02-26T09:48:57;8.88;;;3.70;;
67514;SDS011;60646;55.802;37.032;2024-02-26T09:51:23;7.70;;;3.00;;
67514;SDS011;60646;55.802;37.032;2024-02-26T09:53:52;12.68;;;3.97;;
67514;SDS011;60646;55.802;37.032;2024-02-26T09:56:18;10.80;;;3.60;;
67514;SDS011;60646;55.802;37.032;2024-02-26T09:58:45;7.93;;;3.05;;
67514;SDS011;60646;55.802;37.032;2024-02-26T10:01:16;12.30;;;3.08;;
67514;SDS011;60646;55.802;37.032;2024-02-26T10:03:43;13.50;;;3.85;;
67514;SDS011;60646;55.802;37.032;2024-02-26T10:06:12;17.92;;;4.85;;
67514;SDS011;60646;55.802;37.032;2024-02-26T10:08:39;6.97;;;2.92;;
67514;SDS011;60646;55.802;37.032;2024-02-26T10:11:05;8.32;;;3.10;;
67514;SDS011;60646;55.802;37.032;2024-02-26T10:13:36;8.68;;;2.85;;
67514;SDS011;60646;55.802;37.032;2024-02-26T10:16:03;6.95;;;3.00;;
67514;SDS011;60646;55.802;37.032;2024-02-26T10:22:01;5.45;;;2.65;;
67514;SDS011;60646;55.802;37.032;2024-02-26T10:24:28;6.70;;;2.95;;
67514;SDS011;60646;55.802;37.032;2024-02-26T10:26:55;9.40;;;4.25;;
67514;SDS011;60646;55.802;37.032;2024-02-26T10:29:21;21.40;;;7.75;;
67514;SDS011;60646;55.802;37.032;2024-02-26T10:31:50;25.40;;;9.57;;
67514;SDS011;60646;55.802;37.032;2024-02-26T10:34:16;20.63;;;6.53;;
67514;SDS011;60646;55.802;37.032;2024-02-26T10:36:42;9.80;;;4.38;;
67514;SDS011;60646;55.802;37.032;2024-02-26T10:39:09;20.38;;;6.60;;
67514;SDS011;60646;55.802;37.032;2024-02-26T10:41:40;15.68;;;5.03;;
67514;SDS011;60646;55.802;37.032;2024-02-26T10:44:10;19.98;;;7.65;;
67514;SDS011;60646;55.802;37.032;2024-02-26T10:46:37;9.07;;;3.65;;
67514;SDS011;60646;55.802;37.032;2024-02-26T10:49:04;16.52;;;5.18;;
67514;SDS011;60646;55.802;37.032;2024-02-26T10:51:30;18.23;;;6.10;;
67514;SDS011;60646;55.802;37.032;2024-02-26T10:53:57;9.73;;;3.75;;
67514;SDS011;60646;55.802;37.032;2024-02-26T10:56:27;11.65;;;4.68;;
67514;SDS011;60646;55.802;37.032;2024-02-26T10:58:54;11.57;;;4.57;;
67514;SDS011;60646;55.802;37.032;2024-02-26T11:01:21;16.83;;;5.18;;
67514;SDS011;60646;55.802;37.032;2024-02-26T11:03:52;12.65;;;3.70;;
67514;SDS011;60646;55.802;37.032;2024-02-26T11:06:21;10.52;;;4.40;;
67514;SDS011;60646;55.802;37.032;2024-02-26T11:09:06;9.18;;;3.67;;
67514;SDS011;60646;55.802;37.032;2024-02-26T11:11:33;7.03;;;3.00;;
67514;SDS011;60646;55.802;37.032;2024-02-26T11:14:03;10.27;;;3.40;;
67514;SDS011;60646;55.802;37.032;2024-02-26T11:16:28;6.50;;;2.90;;
67514;SDS011;60646;55.802;37.032;2024-02-26T11:18:55;9.43;;;3.35;;
67514;SDS011;60646;55.802;37.032;2024-02-26T11:21:23;8.80;;;3.20;;
67514;SDS011;60646;55.802;37.032;2024-02-26T11:24:14;10.23;;;3.78;;
67514;SDS011;60646;55.802;37.032;2024-02-26T11:26:53;8.27;;;3.05;;
67514;SDS011;60646;55.802;37.032;2024-02-26T11:29:25;13.85;;;5.20;;
67514;SDS011;60646;55.802;37.032;2024-02-26T11:31:57;11.77;;;4.20;;
67514;SDS011;60646;55.802;37.032;2024-02-26T11:34:25;14.52;;;4.00;;
67514;SDS011;60646;55.802;37.032;2024-02-26T11:36:51;7.75;;;3.17;;
67514;SDS011;60646;55.802;37.032;2024-02-26T11:39:17;14.88;;;4.90;;
67514;SDS011;60646;55.802;37.032;2024-02-26T11:41:43;12.55;;;4.90;;
67514;SDS011;60646;55.802;37.032;2024-02-26T11:44:09;13.68;;;5.03;;
67514;SDS011;60646;55.802;37.032;2024-02-26T11:46:42;20.77;;;5.97;;
67514;SDS011;60646;55.802;37.032;2024-02-26T11:51:52;20.85;;;8.02;;
67514;SDS011;60646;55.802;37.032;2024-02-26T11:57:19;13.25;;;3.92;;
67514;SDS011;60646;55.802;37.032;2024-02-26T11:59:56;12.48;;;5.90;;
67514;SDS011;60646;55.802;37.032;2024-02-26T12:02:55;19.40;;;6.10;;
67514;SDS011;60646;55.802;37.032;2024-02-26T12:05:30;15.60;;;5.78;;
67514;SDS011;60646;55.802;37.032;2024-02-26T12:10:43;6.88;;;3.22;;
67514;SDS011;60646;55.802;37.032;2024-02-26T12:15:43;17.80;;;5.20;;
67514;SDS011;60646;55.802;37.032;2024-02-26T12:18:19;17.17;;;5.47;;
67514;SDS011;60646;55.802;37.032;2024-02-26T12:20:47;17.55;;;5.38;;
67514;SDS011;60646;55.802;37.032;2024-02-26T12:23:16;12.50;;;5.20;;
67514;SDS011;60646;55.802;37.032;2024-02-26T12:25:44;11.98;;;4.60;;
67514;SDS011;60646;55.802;37.032;2024-02-26T12:28:14;7.70;;;2.60;;
67514;SDS011;60646;55.802;37.032;2024-02-26T12:30:40;14.95;;;4.53;;
67514;SDS011;60646;55.802;37.032;2024-02-26T12:33:06;5.60;;;2.25;;
67514;SDS011;60646;55.802;37.032;2024-02-26T12:35:34;7.15;;;3.08;;
67514;SDS011;60646;55.802;37.032;2024-02-26T12:38:01;6.97;;;3.10;;
67514;SDS011;60646;55.802;37.032;2024-02-26T12:40:30;12.82;;;4.53;;
67514;SDS011;60646;55.802;37.032;2024-02-26T12:42:57;14.27;;;5.38;;
67514;SDS011;60646;55.802;37.032;2024-02-26T12:45:25;26.77;;;9.90;;
67514;SDS011;60646;55.802;37.032;2024-02-26T12:47:52;12.20;;;4.90;;
67514;SDS011;60646;55.802;37.032;2024-02-26T12:50:18;16.63;;;5.38;;
67514;SDS011;60646;55.802;37.032;2024-02-26T12:52:44;15.13;;;5.50;;
67514;SDS011;60646;55.802;37.032;2024-02-26T12:55:15;14.32;;;6.45;;
67514;SDS011;60646;55.802;37.032;2024-02-26T12:57:45;25.15;;;7.22;;
67514;SDS011;60646;55.802;37.032;2024-02-26T13:00:18;17.80;;;6.22;;
67514;SDS011;60646;55.802;37.032;2024-02-26T13:02:47;12.77;;;4.78;;
67514;SDS011;60646;55.802;37.032;2024-02-26T13:05:15;12.10;;;5.38;;
67514;SDS011;60646;55.802;37.032;2024-02-26T13:07:42;10.25;;;4.47;;
67514;SDS011;60646;55.802;37.032;2024-02-26T13:10:17;19.10;;;6.55;;
67514;SDS011;60646;55.802;37.032;2024-02-26T13:12:44;11.52;;;4.80;;
67514;SDS011;60646;55.802;37.032;2024-02-26T13:15:16;14.32;;;5.18;;
67514;SDS011;60646;55.802;37.032;2024-02-26T13:18:09;12.65;;;5.97;;
67514;SDS011;60646;55.802;37.032;2024-02-26T13:20:35;16.85;;;6.60;;
67514;SDS011;60646;55.802;37.032;2024-02-26T13:23:02;11.80;;;5.30;;
67514;SDS011;60646;55.802;37.032;2024-02-26T13:25:32;10.73;;;3.95;;
67514;SDS011;60646;55.802;37.032;2024-02-26T13:28:18;11.48;;;4.10;;
67514;SDS011;60646;55.802;37.032;2024-02-26T13:30:51;9.07;;;3.33;;
67514;SDS011;60646;55.802;37.032;2024-02-26T13:33:18;19.48;;;7.55;;
67514;SDS011;60646;55.802;37.032;2024-02-26T13:35:44;23.30;;;8.68;;
67514;SDS011;60646;55.802;37.032;2024-02-26T13:38:10;38.00;;;13.48;;
67514;SDS011;60646;55.802;37.032;2024-02-26T13:40:37;19.17;;;6.85;;
67514;SDS011;60646;55.802;37.032;2024-02-26T13:43:04;23.17;;;8.20;;
67514;SDS011;60646;55.802;37.032;2024-02-26T13:45:33;17.90;;;5.85;;
67514;SDS011;60646;55.802;37.032;2024-02-26T13:48:09;9.32;;;3.88;;
67514;SDS011;60646;55.802;37.032;2024-02-26T13:50:50;16.85;;;7.32;;
67514;SDS011;60646;55.802;37.032;2024-02-26T13:53:19;16.77;;;6.63;;
67514;SDS011;60646;55.802;37.032;2024-02-26T13:55:45;14.02;;;5.43;;
67514;SDS011;60646;55.802;37.032;2024-02-26T13:58:12;19.38;;;6.70;;
67514;SDS011;60646;55.802;37.032;2024-02-26T14:00:39;50.60;;;15.82;;
67514;SDS011;60646;55.802;37.032;2024-02-26T14:03:07;46.28;;;12.85;;
67514;SDS011;60646;55.802;37.032;2024-02-26T14:05:33;31.65;;;9.68;;
67514;SDS011;60646;55.802;37.032;2024-02-26T14:07:58;31.63;;;11.88;;
67514;SDS011;60646;55.802;37.032;2024-02-26T14:10:24;32.10;;;11.07;;
67514;SDS011;60646;55.802;37.032;2024-02-26T14:12:51;18.27;;;6.88;;
67514;SDS011;60646;55.802;37.032;2024-02-26T14:15:17;22.98;;;8.73;;
67514;SDS011;60646;55.802;37.032;2024-02-26T14:17:43;13.98;;;4.75;;
67514;SDS011;60646;55.802;37.032;2024-02-26T14:20:09;14.88;;;4.72;;
67514;SDS011;60646;55.802;37.032;2024-02-26T14:22:35;12.15;;;4.38;;
67514;SDS011;60646;55.802;37.032;2024-02-26T14:25:20;8.52;;;3.63;;
67514;SDS011;60646;55.802;37.032;2024-02-26T14:27:47;22.15;;;8.20;;
67514;SDS011;60646;55.802;37.032;2024-02-26T14:30:14;12.50;;;3.83;;
67514;SDS011;60646;55.802;37.032;2024-02-26T14:32:40;16.70;;;7.43;;
67514;SDS011;60646;55.802;37.032;2024-02-26T14:35:06;15.02;;;5.10;;
67514;SDS011;60646;55.802;37.032;2024-02-26T14:37:35;13.45;;;3.67;;
67514;SDS011;60646;55.802;37.032;2024-02-26T14:40:02;14.15;;;5.57;;
67514;SDS011;60646;55.802;37.032;2024-02-26T14:42:29;6.80;;;3.47;;
67514;SDS011;60646;55.802;37.032;2024-02-26T14:44:55;6.18;;;2.67;;
67514;SDS011;60646;55.802;37.032;2024-02-26T14:47:21;9.10;;;3.00;;
67514;SDS011;60646;55.802;37.032;2024-02-26T14:49:47;4.82;;;1.98;;
67514;SDS011;60646;55.802;37.032;2024-02-26T14:52:14;8.00;;;3.08;;